sensor_id;sensor_type;location;lat;lon;timestamp;pressure;altitude;pressure_sealevel;temperature;humidity
56876;BME280;42622;49.972;8.452;2022-07-22T00:01:35;101085.53;;;17.26;91.49
56876;BME280;42622;49.972;8.452;2022-07-22T00:04:01;101093.22;;;17.19;91.41
56876;BME280;42622;49.972;8.452;2022-07-22T00:06:29;101093.16;;;17.09;92.34
56876;BME280;42622;49.972;8.452;2022-07-22T00:08:55;101099.16;;;17.02;93.02
56876;BME280;42622;49.972;8.452;2022-07-22T00:11:22;101098.81;;;16.95;92.42
56876;BME280;42622;49.972;8.452;2022-07-22T00:13:49;101098.63;;;16.87;93.11
56876;BME280;42622;49.972;8.452;2022-07-22T00:16:15;101092.09;;;16.80;93.82
56876;BME280;42622;49.972;8.452;2022-07-22T00:18:41;101099.25;;;16.79;93.90
56876;BME280;42622;49.972;8.452;2022-07-22T00:21:07;101093.09;;;16.79;94.18
56876;BME280;42622;49.972;8.452;2022-07-22T00:23:33;101094.72;;;16.91;94.79
56876;BME280;42622;49.972;8.452;2022-07-22T00:25:58;101093.47;;;16.95;94.39
56876;BME280;42622;49.972;8.452;2022-07-22T00:28:24;101096.88;;;16.97;93.92
56876;BME280;42622;49.972;8.452;2022-07-22T00:30:50;101089.22;;;16.92;94.27
56876;BME280;42622;49.972;8.452;2022-07-22T00:33:16;101090.59;;;16.87;94.22
56876;BME280;42622;49.972;8.452;2022-07-22T00:35:42;101084.94;;;16.80;94.30
56876;BME280;42622;49.972;8.452;2022-07-22T00:38:07;101074.66;;;16.76;94.59
56876;BME280;42622;49.972;8.452;2022-07-22T00:40:33;101066.84;;;16.72;95.17
56876;BME280;42622;49.972;8.452;2022-07-22T00:43:00;101072.19;;;16.72;95.64
56876;BME280;42622;49.972;8.452;2022-07-22T00:45:26;101069.31;;;16.76;95.76
56876;BME280;42622;49.972;8.452;2022-07-22T00:47:52;101064.91;;;16.86;95.56
56876;BME280;42622;49.972;8.452;2022-07-22T00:50:18;101071.84;;;16.98;95.37
56876;BME280;42622;49.972;8.452;2022-07-22T00:52:45;101057.00;;;17.05;95.62
56876;BME280;42622;49.972;8.452;2022-07-22T00:55:13;101070.84;;;17.10;95.20
56876;BME280;42622;49.972;8.452;2022-07-22T00:57:39;101065.19;;;17.13;94.97
56876;BME280;42622;49.972;8.452;2022-07-22T01:00:11;101071.28;;;17.15;95.34
56876;BME280;42622;49.972;8.452;2022-07-22T01:02:40;101065.78;;;17.17;94.65
56876;BME280;42622;49.972;8.452;2022-07-22T01:05:07;101081.81;;;17.17;95.05
56876;BME280;42622;49.972;8.452;2022-07-22T01:07:32;101070.88;;;17.20;94.83
56876;BME280;42622;49.972;8.452;2022-07-22T01:09:58;101075.97;;;17.23;94.40
56876;BME280;42622;49.972;8.452;2022-07-22T01:12:24;101083.31;;;17.31;94.22
56876;BME280;42622;49.972;8.452;2022-07-22T01:14:50;101080.38;;;17.34;93.42
56876;BME280;42622;49.972;8.452;2022-07-22T01:17:16;101085.63;;;17.35;92.76
56876;BME280;42622;49.972;8.452;2022-07-22T01:19:42;101074.91;;;17.35;92.54
56876;BME280;42622;49.972;8.452;2022-07-22T01:22:08;101084.38;;;17.39;92.63
56876;BME280;42622;49.972;8.452;2022-07-22T01:24:35;101074.63;;;17.38;91.81
56876;BME280;42622;49.972;8.452;2022-07-22T01:27:00;101079.13;;;17.38;91.32
56876;BME280;42622;49.972;8.452;2022-07-22T01:29:26;101076.88;;;17.33;91.85
56876;BME280;42622;49.972;8.452;2022-07-22T01:31:52;101072.63;;;17.31;91.67
56876;BME280;42622;49.972;8.452;2022-07-22T01:34:18;101071.66;;;17.32;91.00
56876;BME280;42622;49.972;8.452;2022-07-22T01:36:44;101070.69;;;17.33;90.92
56876;BME280;42622;49.972;8.452;2022-07-22T01:39:10;101067.03;;;17.34;90.19
56876;BME280;42622;49.972;8.452;2022-07-22T01:41:37;101059.00;;;17.34;90.41
56876;BME280;42622;49.972;8.452;2022-07-22T01:44:03;101062.66;;;17.33;90.33
56876;BME280;42622;49.972;8.452;2022-07-22T01:46:29;101063.75;;;17.30;89.97
56876;BME280;42622;49.972;8.452;2022-07-22T01:48:55;101067.53;;;17.28;89.97
56876;BME280;42622;49.972;8.452;2022-07-22T01:51:21;101070.63;;;17.23;90.25
56876;BME280;42622;49.972;8.452;2022-07-22T01:53:47;101072.59;;;17.21;90.70
56876;BME280;42622;49.972;8.452;2022-07-22T01:56:14;101075.38;;;17.19;90.49
56876;BME280;42622;49.972;8.452;2022-07-22T01:58:40;101075.38;;;17.19;90.39
56876;BME280;42622;49.972;8.452;2022-07-22T02:01:06;101077.19;;;17.19;90.36
56876;BME280;42622;49.972;8.452;2022-07-22T02:03:32;101072.69;;;17.19;90.02
56876;BME280;42622;49.972;8.452;2022-07-22T02:05:58;101079.16;;;17.17;90.65
56876;BME280;42622;49.972;8.452;2022-07-22T02:08:24;101082.22;;;17.12;90.12
56876;BME280;42622;49.972;8.452;2022-07-22T02:10:50;101084.31;;;17.09;90.64
56876;BME280;42622;49.972;8.452;2022-07-22T02:13:16;101077.38;;;17.06;90.66
56876;BME280;42622;49.972;8.452;2022-07-22T02:15:42;101074.13;;;17.03;90.95
56876;BME280;42622;49.972;8.452;2022-07-22T02:18:17;101075.25;;;17.00;91.24
56876;BME280;42622;49.972;8.452;2022-07-22T02:20:45;101071.84;;;16.98;91.17
56876;BME280;42622;49.972;8.452;2022-07-22T02:23:11;101072.94;;;16.95;91.09
56876;BME280;42622;49.972;8.452;2022-07-22T02:25:39;101073.78;;;16.96;90.98
56876;BME280;42622;49.972;8.452;2022-07-22T02:28:05;101077.72;;;16.92;91.22
56876;BME280;42622;49.972;8.452;2022-07-22T02:30:31;101078.94;;;16.88;91.73
56876;BME280;42622;49.972;8.452;2022-07-22T02:32:58;101074.00;;;16.83;92.18
56876;BME280;42622;49.972;8.452;2022-07-22T02:35:24;101083.00;;;16.82;92.05
56876;BME280;42622;49.972;8.452;2022-07-22T02:37:51;101076.19;;;16.78;92.43
56876;BME280;42622;49.972;8.452;2022-07-22T02:40:17;101074.75;;;16.74;92.32
56876;BME280;42622;49.972;8.452;2022-07-22T02:42:43;101081.88;;;16.73;92.49
56876;BME280;42622;49.972;8.452;2022-07-22T02:45:09;101079.22;;;16.73;92.22
56876;BME280;42622;49.972;8.452;2022-07-22T02:47:45;101081.88;;;16.73;93.32
56876;BME280;42622;49.972;8.452;2022-07-22T02:50:15;101081.19;;;16.71;93.12
56876;BME280;42622;49.972;8.452;2022-07-22T02:52:41;101076.09;;;16.68;93.53
56876;BME280;42622;49.972;8.452;2022-07-22T02:55:07;101076.34;;;16.65;93.35
56876;BME280;42622;49.972;8.452;2022-07-22T02:57:34;101071.25;;;16.62;93.88
56876;BME280;42622;49.972;8.452;2022-07-22T03:00:00;101078.53;;;16.60;93.47
56876;BME280;42622;49.972;8.452;2022-07-22T03:02:25;101089.50;;;16.57;94.20
56876;BME280;42622;49.972;8.452;2022-07-22T03:04:51;101089.16;;;16.51;93.69
56876;BME280;42622;49.972;8.452;2022-07-22T03:07:17;101084.16;;;16.46;93.86
56876;BME280;42622;49.972;8.452;2022-07-22T03:09:43;101080.91;;;16.42;94.74
56876;BME280;42622;49.972;8.452;2022-07-22T03:12:10;101084.81;;;16.38;94.57
56876;BME280;42622;49.972;8.452;2022-07-22T03:14:36;101090.53;;;16.34;95.25
56876;BME280;42622;49.972;8.452;2022-07-22T03:17:02;101089.78;;;16.32;95.08
56876;BME280;42622;49.972;8.452;2022-07-22T03:19:28;101094.53;;;16.28;95.72
56876;BME280;42622;49.972;8.452;2022-07-22T03:21:53;101093.44;;;16.31;95.92
56876;BME280;42622;49.972;8.452;2022-07-22T03:24:19;101089.53;;;16.35;95.35
56876;BME280;42622;49.972;8.452;2022-07-22T03:26:45;101087.59;;;16.37;95.41
56876;BME280;42622;49.972;8.452;2022-07-22T03:29:11;101097.06;;;16.41;95.17
56876;BME280;42622;49.972;8.452;2022-07-22T03:31:36;101093.78;;;16.37;95.22
56876;BME280;42622;49.972;8.452;2022-07-22T03:34:02;101094.38;;;16.41;95.19
56876;BME280;42622;49.972;8.452;2022-07-22T03:36:29;101089.03;;;16.41;95.53
56876;BME280;42622;49.972;8.452;2022-07-22T03:38:55;101095.81;;;16.45;95.64
56876;BME280;42622;49.972;8.452;2022-07-22T03:41:21;101083.22;;;16.47;95.78
56876;BME280;42622;49.972;8.452;2022-07-22T03:43:47;101086.59;;;16.49;95.73
56876;BME280;42622;49.972;8.452;2022-07-22T03:46:13;101095.56;;;16.48;96.01
56876;BME280;42622;49.972;8.452;2022-07-22T03:48:39;101096.41;;;16.48;95.25
56876;BME280;42622;49.972;8.452;2022-07-22T03:51:06;101096.41;;;16.48;95.32
56876;BME280;42622;49.972;8.452;2022-07-22T03:53:31;101094.84;;;16.46;95.35
56876;BME280;42622;49.972;8.452;2022-07-22T03:56:01;101096.81;;;16.44;95.82
56876;BME280;42622;49.972;8.452;2022-07-22T03:58:26;101089.66;;;16.44;95.64
56876;BME280;42622;49.972;8.452;2022-07-22T04:00:53;101088.81;;;16.44;94.96
56876;BME280;42622;49.972;8.452;2022-07-22T04:03:20;101092.41;;;16.43;95.40
56876;BME280;42622;49.972;8.452;2022-07-22T04:05:46;101090.88;;;16.40;95.65
56876;BME280;42622;49.972;8.452;2022-07-22T04:08:13;101094.38;;;16.41;94.89
56876;BME280;42622;49.972;8.452;2022-07-22T04:10:38;101084.81;;;16.38;95.47
56876;BME280;42622;49.972;8.452;2022-07-22T04:13:05;101083.72;;;16.41;95.60
56876;BME280;42622;49.972;8.452;2022-07-22T04:15:30;101090.03;;;16.40;95.68
56876;BME280;42622;49.972;8.452;2022-07-22T04:17:56;101081.03;;;16.41;96.06
56876;BME280;42622;49.972;8.452;2022-07-22T04:20:22;101083.72;;;16.41;95.69
56876;BME280;42622;49.972;8.452;2022-07-22T04:22:48;101074.97;;;16.39;95.25
56876;BME280;42622;49.972;8.452;2022-07-22T04:25:14;101070.63;;;16.38;95.42
56876;BME280;42622;49.972;8.452;2022-07-22T04:27:40;101066.38;;;16.35;95.48
56876;BME280;42622;49.972;8.452;2022-07-22T04:30:07;101065.53;;;16.35;95.30
56876;BME280;42622;49.972;8.452;2022-07-22T04:32:33;101060.06;;;16.36;96.07
56876;BME280;42622;49.972;8.452;2022-07-22T04:34:59;101066.00;;;16.40;95.49
56876;BME280;42622;49.972;8.452;2022-07-22T04:37:24;101070.22;;;16.42;95.28
56876;BME280;42622;49.972;8.452;2022-07-22T04:39:50;101064.78;;;16.44;95.86
56876;BME280;42622;49.972;8.452;2022-07-22T04:42:16;101063.56;;;16.48;95.19
56876;BME280;42622;49.972;8.452;2022-07-22T04:44:42;101066.81;;;16.52;95.28
56876;BME280;42622;49.972;8.452;2022-07-22T04:47:10;101068.38;;;16.54;95.78
56876;BME280;42622;49.972;8.452;2022-07-22T04:49:37;101061.81;;;16.58;95.41
56876;BME280;42622;49.972;8.452;2022-07-22T04:52:03;101067.84;;;16.60;95.40
56876;BME280;42622;49.972;8.452;2022-07-22T04:54:29;101062.28;;;16.63;95.12
56876;BME280;42622;49.972;8.452;2022-07-22T04:56:55;101057.78;;;16.64;94.40
56876;BME280;42622;49.972;8.452;2022-07-22T04:59:20;101071.47;;;16.70;94.67
56876;BME280;42622;49.972;8.452;2022-07-22T05:01:46;101071.97;;;16.76;94.72
56876;BME280;42622;49.972;8.452;2022-07-22T05:04:12;101073.16;;;16.83;94.63
56876;BME280;42622;49.972;8.452;2022-07-22T05:06:38;101077.13;;;16.88;94.41
56876;BME280;42622;49.972;8.452;2022-07-22T05:09:03;101066.06;;;16.93;93.53
56876;BME280;42622;49.972;8.452;2022-07-22T05:11:29;101061.16;;;16.98;93.49
56876;BME280;42622;49.972;8.452;2022-07-22T05:13:55;101064.03;;;17.06;93.61
56876;BME280;42622;49.972;8.452;2022-07-22T05:16:21;101065.34;;;17.12;92.30
56876;BME280;42622;49.972;8.452;2022-07-22T05:18:46;101069.19;;;17.19;92.11
56876;BME280;42622;49.972;8.452;2022-07-22T05:21:12;101073.03;;;17.26;91.92
56876;BME280;42622;49.972;8.452;2022-07-22T05:23:38;101067.03;;;17.34;90.87
56876;BME280;42622;49.972;8.452;2022-07-22T05:26:07;101069.03;;;17.41;90.58
56876;BME280;42622;49.972;8.452;2022-07-22T05:28:33;101068.50;;;17.48;89.77
56876;BME280;42622;49.972;8.452;2022-07-22T05:30:59;101063.47;;;17.54;89.85
56876;BME280;42622;49.972;8.452;2022-07-22T05:33:24;101064.63;;;17.61;89.40
56876;BME280;42622;49.972;8.452;2022-07-22T05:35:50;101065.53;;;17.72;88.83
56876;BME280;42622;49.972;8.452;2022-07-22T05:38:16;101071.91;;;17.80;88.04
56876;BME280;42622;49.972;8.452;2022-07-22T05:40:42;101077.28;;;17.90;87.52
56876;BME280;42622;49.972;8.452;2022-07-22T05:43:07;101070.41;;;17.97;87.08
56876;BME280;42622;49.972;8.452;2022-07-22T05:45:33;101074.97;;;18.06;86.78
56876;BME280;42622;49.972;8.452;2022-07-22T05:47:59;101080.47;;;18.14;86.03
56876;BME280;42622;49.972;8.452;2022-07-22T05:50:26;101082.59;;;18.21;85.88
56876;BME280;42622;49.972;8.452;2022-07-22T05:52:52;101079.09;;;18.30;85.09
56876;BME280;42622;49.972;8.452;2022-07-22T05:55:18;101080.94;;;18.39;84.42
56876;BME280;42622;49.972;8.452;2022-07-22T05:57:44;101076.72;;;18.46;83.99
56876;BME280;42622;49.972;8.452;2022-07-22T06:00:10;101065.47;;;18.52;83.31
56876;BME280;42622;49.972;8.452;2022-07-22T06:02:36;101064.31;;;18.64;82.83
56876;BME280;42622;49.972;8.452;2022-07-22T06:05:02;101066.91;;;18.76;82.04
56876;BME280;42622;49.972;8.452;2022-07-22T06:07:28;101069.13;;;18.90;81.58
56876;BME280;42622;49.972;8.452;2022-07-22T06:09:54;101067.75;;;18.96;81.02
56876;BME280;42622;49.972;8.452;2022-07-22T06:12:20;101055.19;;;19.06;80.79
56876;BME280;42622;49.972;8.452;2022-07-22T06:14:46;101061.22;;;19.18;80.03
56876;BME280;42622;49.972;8.452;2022-07-22T06:17:13;101061.75;;;19.21;79.23
56876;BME280;42622;49.972;8.452;2022-07-22T06:19:39;101054.16;;;19.26;78.67
56876;BME280;42622;49.972;8.452;2022-07-22T06:22:05;101062.03;;;19.38;78.64
56876;BME280;42622;49.972;8.452;2022-07-22T06:24:30;101062.69;;;19.49;77.80
56876;BME280;42622;49.972;8.452;2022-07-22T06:26:56;101060.97;;;19.58;77.11
56876;BME280;42622;49.972;8.452;2022-07-22T06:29:22;101065.59;;;19.75;77.00
56876;BME280;42622;49.972;8.452;2022-07-22T06:31:48;101060.69;;;19.89;76.18
56876;BME280;42622;49.972;8.452;2022-07-22T06:34:14;101071.97;;;19.92;76.05
56876;BME280;42622;49.972;8.452;2022-07-22T06:36:40;101068.22;;;19.85;75.12
56876;BME280;42622;49.972;8.452;2022-07-22T06:39:06;101067.38;;;19.85;75.92
56876;BME280;42622;49.972;8.452;2022-07-22T06:41:32;101070.88;;;20.13;75.33
56876;BME280;42622;49.972;8.452;2022-07-22T06:43:58;101066.38;;;20.31;74.39
56876;BME280;42622;49.972;8.452;2022-07-22T06:46:23;101070.44;;;20.35;74.25
56876;BME280;42622;49.972;8.452;2022-07-22T06:48:49;101072.81;;;20.66;74.50
56876;BME280;42622;49.972;8.452;2022-07-22T06:51:15;101081.63;;;20.76;73.35
56876;BME280;42622;49.972;8.452;2022-07-22T06:53:41;101071.06;;;20.57;73.28
56876;BME280;42622;49.972;8.452;2022-07-22T06:56:07;101072.06;;;20.46;73.39
56876;BME280;42622;49.972;8.452;2022-07-22T06:58:32;101073.31;;;21.05;74.30
56876;BME280;42622;49.972;8.452;2022-07-22T07:00:58;101061.88;;;21.81;70.78
56876;BME280;42622;49.972;8.452;2022-07-22T07:03:24;101071.31;;;22.36;67.29
56876;BME280;42622;49.972;8.452;2022-07-22T07:05:52;101072.22;;;22.85;65.80
56876;BME280;42622;49.972;8.452;2022-07-22T07:08:18;101068.28;;;23.61;63.68
56876;BME280;42622;49.972;8.452;2022-07-22T07:10:44;101064.28;;;23.25;61.53
56876;BME280;42622;49.972;8.452;2022-07-22T07:13:09;101052.28;;;22.21;63.71
56876;BME280;42622;49.972;8.452;2022-07-22T07:15:35;101054.03;;;22.55;64.36
56876;BME280;42622;49.972;8.452;2022-07-22T07:18:01;101054.66;;;23.47;62.57
56876;BME280;42622;49.972;8.452;2022-07-22T07:20:27;101049.31;;;23.86;61.21
56876;BME280;42622;49.972;8.452;2022-07-22T07:22:53;101045.63;;;24.41;59.69
56876;BME280;42622;49.972;8.452;2022-07-22T07:25:20;101048.63;;;24.69;58.27
56876;BME280;42622;49.972;8.452;2022-07-22T07:27:46;101050.38;;;24.62;57.72
56876;BME280;42622;49.972;8.452;2022-07-22T07:30:12;101039.84;;;23.90;57.87
56876;BME280;42622;49.972;8.452;2022-07-22T07:32:39;101043.25;;;23.12;60.41
56876;BME280;42622;49.972;8.452;2022-07-22T07:35:06;101056.38;;;22.82;62.51
56876;BME280;42622;49.972;8.452;2022-07-22T07:37:33;101043.94;;;22.73;61.96
56876;BME280;42622;49.972;8.452;2022-07-22T07:39:59;101037.50;;;22.41;63.10
56876;BME280;42622;49.972;8.452;2022-07-22T07:42:26;101033.16;;;22.98;63.91
56876;BME280;42622;49.972;8.452;2022-07-22T07:44:52;101039.13;;;23.57;61.09
56876;BME280;42622;49.972;8.452;2022-07-22T07:47:18;101031.59;;;23.83;59.75
56876;BME280;42622;49.972;8.452;2022-07-22T07:49:47;101026.31;;;23.43;59.92
56876;BME280;42622;49.972;8.452;2022-07-22T07:52:15;101036.94;;;24.00;59.88
56876;BME280;42622;49.972;8.452;2022-07-22T07:54:42;101036.22;;;24.60;58.34
56876;BME280;42622;49.972;8.452;2022-07-22T07:57:10;101035.56;;;24.81;56.77
56876;BME280;42622;49.972;8.452;2022-07-22T07:59:37;101031.44;;;25.23;56.80
56876;BME280;42622;49.972;8.452;2022-07-22T08:02:06;101028.41;;;25.41;55.63
56876;BME280;42622;49.972;8.452;2022-07-22T08:04:32;101033.13;;;25.54;56.06
56876;BME280;42622;49.972;8.452;2022-07-22T08:06:59;101027.16;;;25.28;55.12
56876;BME280;42622;49.972;8.452;2022-07-22T08:09:25;101019.88;;;25.14;55.04
56876;BME280;42622;49.972;8.452;2022-07-22T08:11:51;101026.88;;;25.23;55.28
56876;BME280;42622;49.972;8.452;2022-07-22T08:14:18;101028.25;;;25.19;55.29
56876;BME280;42622;49.972;8.452;2022-07-22T08:16:44;101018.47;;;25.18;55.03
56876;BME280;42622;49.972;8.452;2022-07-22T08:19:10;101031.75;;;25.43;54.60
56876;BME280;42622;49.972;8.452;2022-07-22T08:21:36;101022.69;;;25.21;54.25
56876;BME280;42622;49.972;8.452;2022-07-22T08:24:02;101024.53;;;24.37;55.79
56876;BME280;42622;49.972;8.452;2022-07-22T08:26:28;101022.06;;;23.96;57.11
56876;BME280;42622;49.972;8.452;2022-07-22T08:28:54;101015.44;;;23.75;57.62
56876;BME280;42622;49.972;8.452;2022-07-22T08:31:20;101012.75;;;23.67;58.52
56876;BME280;42622;49.972;8.452;2022-07-22T08:33:46;101006.81;;;24.11;58.61
56876;BME280;42622;49.972;8.452;2022-07-22T08:36:11;100999.91;;;24.77;58.03
56876;BME280;42622;49.972;8.452;2022-07-22T08:38:37;100996.56;;;25.28;56.32
56876;BME280;42622;49.972;8.452;2022-07-22T08:41:04;100991.59;;;25.32;56.75
56876;BME280;42622;49.972;8.452;2022-07-22T08:43:35;100989.56;;;25.34;56.04
56876;BME280;42622;49.972;8.452;2022-07-22T08:46:05;100994.31;;;25.32;55.73
56876;BME280;42622;49.972;8.452;2022-07-22T08:48:30;100994.22;;;25.40;54.79
56876;BME280;42622;49.972;8.452;2022-07-22T08:50:56;100978.53;;;25.50;55.08
56876;BME280;42622;49.972;8.452;2022-07-22T08:53:22;100981.44;;;25.48;54.50
56876;BME280;42622;49.972;8.452;2022-07-22T08:55:48;100983.69;;;25.45;54.26
56876;BME280;42622;49.972;8.452;2022-07-22T08:58:15;100985.59;;;25.51;53.89
56876;BME280;42622;49.972;8.452;2022-07-22T09:00:42;100987.09;;;25.68;53.75
56876;BME280;42622;49.972;8.452;2022-07-22T09:03:24;100983.84;;;25.73;52.13
56876;BME280;42622;49.972;8.452;2022-07-22T09:05:54;100979.66;;;25.41;52.50
56876;BME280;42622;49.972;8.452;2022-07-22T09:08:21;100985.72;;;25.13;53.19
56876;BME280;42622;49.972;8.452;2022-07-22T09:10:48;100979.38;;;25.21;53.33
56876;BME280;42622;49.972;8.452;2022-07-22T09:13:16;100981.44;;;25.34;53.01
56876;BME280;42622;49.972;8.452;2022-07-22T09:15:52;100979.22;;;25.37;53.17
56876;BME280;42622;49.972;8.452;2022-07-22T09:18:20;100978.16;;;25.53;53.71
56876;BME280;42622;49.972;8.452;2022-07-22T09:20:47;100978.97;;;25.83;53.30
56876;BME280;42622;49.972;8.452;2022-07-22T09:23:20;100980.19;;;25.81;53.93
56876;BME280;42622;49.972;8.452;2022-07-22T09:25:50;100974.09;;;25.79;52.92
56876;BME280;42622;49.972;8.452;2022-07-22T09:28:20;100980.56;;;25.63;52.28
56876;BME280;42622;49.972;8.452;2022-07-22T09:30:54;100973.13;;;25.50;52.66
56876;BME280;42622;49.972;8.452;2022-07-22T09:33:22;100970.94;;;25.60;52.04
56876;BME280;42622;49.972;8.452;2022-07-22T09:35:50;100967.13;;;25.69;52.73
56876;BME280;42622;49.972;8.452;2022-07-22T09:38:20;100962.31;;;26.01;52.04
56876;BME280;42622;49.972;8.452;2022-07-22T09:40:58;100966.41;;;25.97;50.51
56876;BME280;42622;49.972;8.452;2022-07-22T09:43:24;100965.31;;;25.91;51.32
56876;BME280;42622;49.972;8.452;2022-07-22T09:45:57;100965.06;;;26.08;50.82
56876;BME280;42622;49.972;8.452;2022-07-22T09:48:25;100961.97;;;26.32;51.52
56876;BME280;42622;49.972;8.452;2022-07-22T09:50:54;100963.13;;;26.66;50.85
56876;BME280;42622;49.972;8.452;2022-07-22T09:53:26;100960.63;;;26.64;50.46
56876;BME280;42622;49.972;8.452;2022-07-22T09:56:01;100954.56;;;26.90;49.90
56876;BME280;42622;49.972;8.452;2022-07-22T09:58:29;100943.44;;;27.13;49.75
56876;BME280;42622;49.972;8.452;2022-07-22T10:01:02;100935.16;;;27.22;49.77
56876;BME280;42622;49.972;8.452;2022-07-22T10:03:34;100929.53;;;26.95;49.86
56876;BME280;42622;49.972;8.452;2022-07-22T10:06:04;100937.94;;;27.00;48.84
56876;BME280;42622;49.972;8.452;2022-07-22T10:08:33;100936.00;;;26.94;48.99
56876;BME280;42622;49.972;8.452;2022-07-22T10:11:05;100932.59;;;27.13;48.31
56876;BME280;42622;49.972;8.452;2022-07-22T10:13:33;100932.13;;;27.10;48.92
56876;BME280;42622;49.972;8.452;2022-07-22T10:16:00;100935.84;;;27.02;48.91
56876;BME280;42622;49.972;8.452;2022-07-22T10:18:27;100932.91;;;26.97;48.71
56876;BME280;42622;49.972;8.452;2022-07-22T10:21:06;100944.31;;;27.21;48.31
56876;BME280;42622;49.972;8.452;2022-07-22T10:23:34;100920.53;;;27.23;48.01
56876;BME280;42622;49.972;8.452;2022-07-22T10:26:03;100923.09;;;27.37;47.89
56876;BME280;42622;49.972;8.452;2022-07-22T10:28:34;100919.44;;;27.65;47.69
56876;BME280;42622;49.972;8.452;2022-07-22T10:31:21;100916.72;;;27.58;46.80
56876;BME280;42622;49.972;8.452;2022-07-22T10:33:56;100914.13;;;27.37;46.22
56876;BME280;42622;49.972;8.452;2022-07-22T10:36:31;100909.41;;;27.59;46.58
56876;BME280;42622;49.972;8.452;2022-07-22T10:39:04;100902.97;;;27.73;46.64
56876;BME280;42622;49.972;8.452;2022-07-22T10:41:45;100890.19;;;27.60;45.31
56876;BME280;42622;49.972;8.452;2022-07-22T10:44:12;100895.78;;;27.52;45.51
56876;BME280;42622;49.972;8.452;2022-07-22T10:46:53;100901.50;;;27.64;45.20
56876;BME280;42622;49.972;8.452;2022-07-22T10:49:23;100901.06;;;27.60;45.64
56876;BME280;42622;49.972;8.452;2022-07-22T10:52:17;100892.78;;;27.75;44.72
56876;BME280;42622;49.972;8.452;2022-07-22T10:55:18;100894.25;;;27.78;45.67
56876;BME280;42622;49.972;8.452;2022-07-22T10:57:45;100891.34;;;27.99;44.74
56876;BME280;42622;49.972;8.452;2022-07-22T11:00:12;100881.13;;;28.28;45.41
56876;BME280;42622;49.972;8.452;2022-07-22T11:02:39;100880.72;;;28.44;44.60
56876;BME280;42622;49.972;8.452;2022-07-22T11:05:07;100877.16;;;28.50;45.66
56876;BME280;42622;49.972;8.452;2022-07-22T11:07:40;100870.28;;;28.41;44.16
56876;BME280;42622;49.972;8.452;2022-07-22T11:10:14;100866.25;;;28.37;43.91
56876;BME280;42622;49.972;8.452;2022-07-22T11:12:42;100862.94;;;28.42;43.89
56876;BME280;42622;49.972;8.452;2022-07-22T11:15:09;100861.47;;;28.52;43.00
56876;BME280;42622;49.972;8.452;2022-07-22T11:17:38;100864.53;;;28.76;42.63
56876;BME280;42622;49.972;8.452;2022-07-22T11:20:09;100855.97;;;28.79;42.05
56876;BME280;42622;49.972;8.452;2022-07-22T11:22:37;100850.50;;;28.79;42.04
56876;BME280;42622;49.972;8.452;2022-07-22T11:25:08;100845.44;;;29.02;41.89
56876;BME280;42622;49.972;8.452;2022-07-22T11:27:36;100841.88;;;29.09;42.28
56876;BME280;42622;49.972;8.452;2022-07-22T11:30:05;100839.63;;;28.86;40.44
56876;BME280;42622;49.972;8.452;2022-07-22T11:32:42;100845.09;;;28.66;40.67
56876;BME280;42622;49.972;8.452;2022-07-22T11:35:12;100835.03;;;28.73;41.06
56876;BME280;42622;49.972;8.452;2022-07-22T11:37:38;100827.03;;;28.98;41.91
56876;BME280;42622;49.972;8.452;2022-07-22T11:40:09;100828.88;;;29.11;41.71
56876;BME280;42622;49.972;8.452;2022-07-22T11:42:35;100821.22;;;29.33;41.97
56876;BME280;42622;49.972;8.452;2022-07-22T11:45:03;100826.03;;;29.37;40.89
56876;BME280;42622;49.972;8.452;2022-07-22T11:47:29;100808.75;;;29.12;39.65
56876;BME280;42622;49.972;8.452;2022-07-22T11:49:55;100818.34;;;29.21;40.03
56876;BME280;42622;49.972;8.452;2022-07-22T11:52:22;100815.94;;;29.44;39.46
56876;BME280;42622;49.972;8.452;2022-07-22T11:54:47;100823.00;;;29.59;37.92
56876;BME280;42622;49.972;8.452;2022-07-22T11:57:14;100818.13;;;29.61;38.40
56876;BME280;42622;49.972;8.452;2022-07-22T11:59:42;100815.66;;;29.52;38.98
56876;BME280;42622;49.972;8.452;2022-07-22T12:02:09;100809.69;;;29.37;38.72
56876;BME280;42622;49.972;8.452;2022-07-22T12:04:39;100807.34;;;28.89;39.13
56876;BME280;42622;49.972;8.452;2022-07-22T12:07:10;100807.56;;;28.94;39.21
56876;BME280;42622;49.972;8.452;2022-07-22T12:09:39;100800.25;;;29.01;39.01
56876;BME280;42622;49.972;8.452;2022-07-22T12:12:07;100804.22;;;29.37;39.04
56876;BME280;42622;49.972;8.452;2022-07-22T12:14:34;100801.63;;;29.49;38.42
56876;BME280;42622;49.972;8.452;2022-07-22T12:17:06;100804.63;;;29.79;38.75
56876;BME280;42622;49.972;8.452;2022-07-22T12:19:37;100793.66;;;30.11;38.80
56876;BME280;42622;49.972;8.452;2022-07-22T12:22:11;100787.63;;;30.27;38.31
56876;BME280;42622;49.972;8.452;2022-07-22T12:24:57;100790.25;;;30.59;38.96
56876;BME280;42622;49.972;8.452;2022-07-22T12:27:25;100787.19;;;30.67;38.73
56876;BME280;42622;49.972;8.452;2022-07-22T12:29:52;100783.06;;;30.64;37.58
56876;BME280;42622;49.972;8.452;2022-07-22T12:32:26;100772.50;;;30.68;37.61
56876;BME280;42622;49.972;8.452;2022-07-22T12:37:33;100773.22;;;30.82;37.85
56876;BME280;42622;49.972;8.452;2022-07-22T12:40:21;100771.16;;;30.95;38.15
56876;BME280;42622;49.972;8.452;2022-07-22T12:43:04;100765.06;;;30.93;37.60
56876;BME280;42622;49.972;8.452;2022-07-22T12:45:35;100758.91;;;30.98;38.11
56876;BME280;42622;49.972;8.452;2022-07-22T12:53:05;100757.00;;;30.99;36.59
56876;BME280;42622;49.972;8.452;2022-07-22T12:55:44;100751.91;;;31.02;36.45
56876;BME280;42622;49.972;8.452;2022-07-22T12:58:15;100744.59;;;31.03;37.33
56876;BME280;42622;49.972;8.452;2022-07-22T13:00:46;100739.59;;;31.00;37.83